createdAt,value
2017-03-16T00:00:27.111Z,26.73
2017-03-16T00:01:36.413Z,27.12
2017-03-16T00:02:46.341Z,26.83
2017-03-16T00:05:36.754Z,27.12
2017-03-16T00:06:46.690Z,27.12
2017-03-16T00:07:56.947Z,27.02
2017-03-16T00:09:06.883Z,27.22
2017-03-16T00:10:16.820Z,27.12
2017-03-16T00:11:27.073Z,26.54
2017-03-16T00:12:37.010Z,26.93
2017-03-16T00:13:46.629Z,27.12
2017-03-16T00:14:56.885Z,27.12
2017-03-16T00:16:07.148Z,27.12
2017-03-16T00:17:17.084Z,27.02
2017-03-16T00:18:27.049Z,27.02
2017-03-16T00:19:36.672Z,27.02
2017-03-16T00:20:46.610Z,27.12
2017-03-16T00:21:56.862Z,27.02
2017-03-16T00:23:07.116Z,26.93
2017-03-16T00:24:17.050Z,27.02
2017-03-16T00:25:27.298Z,26.83
2017-03-16T00:26:37.551Z,26.64
2017-03-16T00:27:47.811Z,26.93
2017-03-16T00:28:58.062Z,26.93
2017-03-16T00:30:07.998Z,26.54
2017-03-16T00:31:17.936Z,26.83
2017-03-16T00:32:28.185Z,26.73
2017-03-16T00:33:38.432Z,27.02
2017-03-16T00:34:48.066Z,26.93
2017-03-16T00:35:58.000Z,26.64
2017-03-16T00:37:07.938Z,26.83
2017-03-16T00:38:17.877Z,26.73
2017-03-16T00:39:28.129Z,26.83
2017-03-16T00:40:38.380Z,26.54
2017-03-16T00:41:48.320Z,27.02
2017-03-16T00:42:58.606Z,26.83
2017-03-16T00:44:08.852Z,26.83
2017-03-16T00:45:18.786Z,26.93
2017-03-16T00:46:28.409Z,26.83
2017-03-16T00:47:38.658Z,27.02
2017-03-16T00:48:48.912Z,26.83
2017-03-16T00:49:59.160Z,26.83
2017-03-16T00:51:09.103Z,26.73
2017-03-16T00:52:19.355Z,26.93
2017-03-16T00:53:28.984Z,27.12
2017-03-16T00:54:38.920Z,26.83
2017-03-16T00:55:48.856Z,26.83
2017-03-16T00:56:59.131Z,26.83
2017-03-16T00:58:09.064Z,26.83
2017-03-16T00:59:19.001Z,26.93
2017-03-16T01:00:28.937Z,26.73
2017-03-16T01:01:38.873Z,26.73
2017-03-16T01:02:48.496Z,26.83
2017-03-16T01:03:58.781Z,26.73
2017-03-16T01:05:08.404Z,26.83
2017-03-16T01:06:18.349Z,27.02
2017-03-16T01:07:28.605Z,26.83
2017-03-16T01:08:37.922Z,26.83
2017-03-16T01:09:47.548Z,26.93
2017-03-16T01:10:57.169Z,26.93
2017-03-16T01:12:06.794Z,26.54
2017-03-16T01:13:16.732Z,26.64
2017-03-16T01:14:26.987Z,26.64
2017-03-16T01:15:37.240Z,26.83
2017-03-16T01:16:47.512Z,26.93
2017-03-16T01:17:57.785Z,26.83
2017-03-16T01:19:07.726Z,26.54
2017-03-16T01:20:17.348Z,26.73
2017-03-16T01:21:26.996Z,26.93
2017-03-16T01:22:37.256Z,26.83
2017-03-16T01:23:46.881Z,26.83
2017-03-16T01:24:57.138Z,26.64
2017-03-16T01:26:06.767Z,26.83
2017-03-16T01:27:16.702Z,26.73
2017-03-16T01:28:26.953Z,26.93
2017-03-16T01:29:37.207Z,26.73
2017-03-16T01:30:46.833Z,26.54
2017-03-16T01:31:57.089Z,26.73
2017-03-16T01:33:07.345Z,26.73
2017-03-16T01:34:17.598Z,26.54
2017-03-16T01:35:27.535Z,26.64
2017-03-16T01:36:37.788Z,26.54
2017-03-16T01:37:48.055Z,26.54
2017-03-16T01:38:58.307Z,26.83
2017-03-16T01:40:08.246Z,26.73
2017-03-16T01:41:18.180Z,26.54
2017-03-16T01:42:28.121Z,26.54
2017-03-16T01:43:38.053Z,26.45
2017-03-16T01:44:48.302Z,26.16
2017-03-16T01:45:57.931Z,26.16
2017-03-16T01:47:07.896Z,26.35
2017-03-16T01:48:18.146Z,26.16
2017-03-16T01:49:27.775Z,26.36
2017-03-16T01:50:37.711Z,26.36
2017-03-16T01:51:47.963Z,26.36
2017-03-16T01:52:57.903Z,26.25
2017-03-16T01:54:07.843Z,26.56
2017-03-16T01:55:18.099Z,26.27
2017-03-16T01:56:28.036Z,26.07
2017-03-16T01:57:37.975Z,26.25
2017-03-16T01:58:48.229Z,26.45
2017-03-16T01:59:58.170Z,26.16
2017-03-16T02:01:08.113Z,26.65
2017-03-16T02:02:18.365Z,26.93
2017-03-16T02:03:28.299Z,26.64
2017-03-16T02:04:38.548Z,26.73
2017-03-16T02:05:48.799Z,26.64
2017-03-16T02:06:59.054Z,26.64
2017-03-16T02:08:09.305Z,26.83
2017-03-16T02:09:18.928Z,27.02
2017-03-16T02:10:29.176Z,26.83
2017-03-16T02:11:39.118Z,26.93
2017-03-16T02:12:49.060Z,26.93
2017-03-16T02:13:59.005Z,26.54
2017-03-16T02:15:08.990Z,26.93
2017-03-16T02:16:19.242Z,26.93
2017-03-16T02:17:28.862Z,26.93
2017-03-16T02:18:38.799Z,26.73
2017-03-16T02:19:48.745Z,26.83
2017-03-16T02:20:59.002Z,26.83
2017-03-16T02:22:08.943Z,26.93
2017-03-16T02:23:18.880Z,26.64
2017-03-16T02:24:28.813Z,26.93
2017-03-16T02:25:38.753Z,26.64
2017-03-16T02:26:48.689Z,26.54
2017-03-16T02:27:58.944Z,26.54
2017-03-16T02:29:09.196Z,26.93
2017-03-16T02:30:19.133Z,26.73
2017-03-16T02:31:29.074Z,26.83
2017-03-16T02:32:39.009Z,26.83
2017-03-16T02:33:49.259Z,26.73
2017-03-16T02:34:59.517Z,26.73
2017-03-16T02:36:09.458Z,26.54
2017-03-16T02:37:19.709Z,26.64
2017-03-16T02:38:29.973Z,26.54
2017-03-16T02:39:39.916Z,26.54
2017-03-16T02:40:49.857Z,26.64
2017-03-16T02:42:00.105Z,26.83
2017-03-16T02:43:10.356Z,26.64
2017-03-16T02:44:20.295Z,26.83
2017-03-16T02:45:30.242Z,26.64
2017-03-16T02:46:40.497Z,26.54
2017-03-16T02:47:50.436Z,26.45
2017-03-16T02:49:00.702Z,26.73
2017-03-16T02:50:10.639Z,26.54
2017-03-16T02:51:20.576Z,26.64
2017-03-16T02:52:30.517Z,27.02
2017-03-16T02:53:40.766Z,26.73
2017-03-16T02:54:50.073Z,26.83
2017-03-16T02:55:59.698Z,26.83
2017-03-16T02:57:09.010Z,26.73
2017-03-16T02:58:18.632Z,26.73
2017-03-16T02:59:28.888Z,26.83
2017-03-16T03:00:39.139Z,26.83
2017-03-16T03:01:49.397Z,26.64
2017-03-16T03:02:59.651Z,27.12
2017-03-16T03:04:09.271Z,26.73
2017-03-16T03:05:19.531Z,27.12
2017-03-16T03:06:29.489Z,27.12
2017-03-16T03:07:39.110Z,27.02
2017-03-16T03:08:49.358Z,27.12
2017-03-16T03:09:59.613Z,26.83
2017-03-16T03:11:09.864Z,26.83
2017-03-16T03:12:19.799Z,27.02
2017-03-16T03:13:30.057Z,26.73
2017-03-16T03:14:39.685Z,27.12
2017-03-16T03:15:48.994Z,27.12
2017-03-16T03:16:59.241Z,27.22
2017-03-16T03:18:09.488Z,27.31
2017-03-16T03:19:19.428Z,27.12
2017-03-16T03:20:29.373Z,26.93
2017-03-16T03:21:39.007Z,27.12
2017-03-16T03:22:48.631Z,27.22
2017-03-16T03:23:58.594Z,27.02
2017-03-16T03:25:08.534Z,26.93
2017-03-16T03:26:18.790Z,27.02
2017-03-16T03:27:29.050Z,27.02
2017-03-16T03:28:38.996Z,26.73
2017-03-16T03:29:48.613Z,27.12
2017-03-16T03:30:58.552Z,27.12
2017-03-16T03:32:08.804Z,27.02
2017-03-16T03:33:18.425Z,27.02
2017-03-16T03:34:28.361Z,27.12
2017-03-16T03:35:38.302Z,26.73
2017-03-16T03:36:48.586Z,27.22
2017-03-16T03:37:58.838Z,27.31
2017-03-16T03:39:09.089Z,27.31
2017-03-16T03:40:18.711Z,27.04
2017-03-16T03:41:28.656Z,26.94
2017-03-16T03:42:38.912Z,26.75
2017-03-16T03:43:48.857Z,26.65
2017-03-16T03:44:59.113Z,26.75
2017-03-16T03:46:09.050Z,26.65
2017-03-16T03:47:18.985Z,26.84
2017-03-16T03:48:28.921Z,26.56
2017-03-16T03:49:38.544Z,26.46
2017-03-16T03:50:48.794Z,26.75
2017-03-16T03:51:59.046Z,26.75
2017-03-16T03:53:09.329Z,26.75
2017-03-16T03:54:19.584Z,26.36
2017-03-16T03:55:29.841Z,26.27
2017-03-16T03:56:39.153Z,26.27
2017-03-16T03:57:49.089Z,26.46
2017-03-16T03:58:59.061Z,25.98
2017-03-16T04:00:09.312Z,26.07
2017-03-16T04:01:19.250Z,25.98
2017-03-16T04:02:29.507Z,26.07
2017-03-16T04:03:39.451Z,26.17
2017-03-16T04:04:49.707Z,26.36
2017-03-16T04:05:59.337Z,26.07
2017-03-16T04:07:09.585Z,26.36
2017-03-16T04:08:19.836Z,26.17
2017-03-16T04:09:29.772Z,26.07
2017-03-16T04:10:39.394Z,26.17
2017-03-16T04:11:49.650Z,26.27
2017-03-16T04:12:59.278Z,26.36
2017-03-16T04:14:09.216Z,26.07
2017-03-16T04:15:18.845Z,26.56
2017-03-16T04:16:29.111Z,26.75
2017-03-16T04:17:39.053Z,26.07
2017-03-16T04:18:49.006Z,26.27
2017-03-16T04:19:59.257Z,26.17
2017-03-16T04:21:09.520Z,26.36
2017-03-16T04:22:19.467Z,26.17
2017-03-16T04:23:29.719Z,26.56
2017-03-16T04:24:39.969Z,26.27
2017-03-16T04:25:50.228Z,26.17
2017-03-16T04:27:00.483Z,26.17
2017-03-16T04:28:10.734Z,26.17
2017-03-16T04:29:20.676Z,26.27
2017-03-16T04:30:30.613Z,26.27
2017-03-16T04:31:40.550Z,26.17
2017-03-16T04:32:50.804Z,26.07
2017-03-16T04:34:00.738Z,26.27
2017-03-16T04:35:10.987Z,26.17
2017-03-16T04:36:20.610Z,26.27
2017-03-16T04:37:30.550Z,26.27
2017-03-16T04:38:40.798Z,26.46
2017-03-16T04:39:51.050Z,26.56
2017-03-16T04:41:01.300Z,26.75
2017-03-16T04:42:11.555Z,26.65
2017-03-16T04:43:21.497Z,26.46
2017-03-16T04:44:31.752Z,26.84
2017-03-16T04:45:41.688Z,26.65
2017-03-16T04:46:51.939Z,26.84
2017-03-16T04:48:01.566Z,26.65
2017-03-16T04:49:11.188Z,26.94
2017-03-16T04:50:21.126Z,26.94
2017-03-16T04:51:31.378Z,26.65
2017-03-16T04:52:41.000Z,26.84
2017-03-16T04:53:50.939Z,26.65
2017-03-16T04:55:01.194Z,26.94
2017-03-16T04:56:11.132Z,26.84
2017-03-16T04:57:21.391Z,26.94
2017-03-16T04:58:31.670Z,26.84
2017-03-16T04:59:41.924Z,27.04
2017-03-16T05:00:51.860Z,26.46
2017-03-16T05:02:01.802Z,26.27
2017-03-16T05:03:12.051Z,26.65
2017-03-16T05:04:22.306Z,26.56
2017-03-16T05:05:32.245Z,26.75
2017-03-16T05:06:42.189Z,26.84
2017-03-16T05:07:52.439Z,26.94
2017-03-16T05:09:02.385Z,27.04
2017-03-16T05:10:12.334Z,27.12
2017-03-16T05:11:22.594Z,27.12
2017-03-16T05:12:32.532Z,27.12
2017-03-16T05:13:42.785Z,27.22
2017-03-16T05:14:52.723Z,26.73
2017-03-16T05:16:02.364Z,27.02
2017-03-16T05:17:12.304Z,27.12
2017-03-16T05:18:22.557Z,26.93
2017-03-16T05:19:32.814Z,27.02
2017-03-16T05:20:42.441Z,27.12
2017-03-16T05:21:52.381Z,27.22
2017-03-16T05:23:02.349Z,27.02
2017-03-16T05:24:12.295Z,27.22
2017-03-16T05:25:22.253Z,26.93
2017-03-16T05:26:32.197Z,27.02
2017-03-16T05:27:41.824Z,27.12
2017-03-16T05:28:51.774Z,27.12
2017-03-16T05:30:01.404Z,27.02
2017-03-16T05:31:11.343Z,27.02
2017-03-16T05:32:21.285Z,27.12
2017-03-16T05:33:31.226Z,26.93
2017-03-16T05:34:41.177Z,26.83
2017-03-16T05:35:51.429Z,26.93
2017-03-16T05:37:01.682Z,27.12
2017-03-16T05:38:11.933Z,27.12
2017-03-16T05:39:21.567Z,26.83
2017-03-16T05:40:31.821Z,27.02
2017-03-16T05:41:41.761Z,27.02
2017-03-16T05:42:52.016Z,26.83
2017-03-16T05:44:02.275Z,26.83
2017-03-16T05:45:12.527Z,27.12
2017-03-16T05:46:22.780Z,27.02
2017-03-16T05:47:32.722Z,26.54
2017-03-16T05:48:42.980Z,26.83
2017-03-16T05:49:52.944Z,26.83
2017-03-16T05:51:02.887Z,26.83
2017-03-16T05:52:12.826Z,26.93
2017-03-16T05:53:23.079Z,26.73
2017-03-16T05:54:33.025Z,26.54
2017-03-16T05:55:42.648Z,26.64
2017-03-16T05:56:52.899Z,26.45
2017-03-16T05:58:02.833Z,26.83
2017-03-16T05:59:13.091Z,26.64
2017-03-16T06:00:23.033Z,26.73
2017-03-16T06:01:32.980Z,26.93
2017-03-16T06:02:42.919Z,26.54
2017-03-16T06:03:53.177Z,26.64
2017-03-16T06:05:03.115Z,26.45
2017-03-16T06:06:13.054Z,26.83
2017-03-16T06:07:23.303Z,26.83
2017-03-16T06:08:33.555Z,26.73
2017-03-16T06:09:43.493Z,26.73
2017-03-16T06:10:53.747Z,26.64
2017-03-16T06:12:03.992Z,26.83
2017-03-16T06:13:13.623Z,26.83
2017-03-16T06:14:23.252Z,26.64
2017-03-16T06:15:32.881Z,26.73
2017-03-16T06:16:42.511Z,26.45
2017-03-16T06:17:52.464Z,26.54
2017-03-16T06:19:02.406Z,26.54
2017-03-16T06:20:12.667Z,26.25
2017-03-16T06:21:22.920Z,26.45
2017-03-16T06:22:33.172Z,26.45
2017-03-16T06:23:43.123Z,26.45
2017-03-16T06:24:53.091Z,26.54
2017-03-16T06:26:03.349Z,26.64
2017-03-16T06:27:13.600Z,26.73
2017-03-16T06:28:23.567Z,26.73
2017-03-16T06:29:33.824Z,26.45
2017-03-16T06:30:44.078Z,26.25
2017-03-16T06:31:54.336Z,26.45
2017-03-16T06:33:04.588Z,26.45
2017-03-16T06:34:14.233Z,26.54
2017-03-16T06:35:24.489Z,26.35
2017-03-16T06:36:34.428Z,26.54
2017-03-16T06:37:44.374Z,26.45
2017-03-16T06:38:54.628Z,26.45
2017-03-16T06:40:04.573Z,26.45
2017-03-16T06:41:14.830Z,26.73
2017-03-16T06:42:24.460Z,26.64
2017-03-16T06:43:34.402Z,26.64
2017-03-16T06:44:44.376Z,26.45
2017-03-16T06:45:54.630Z,26.45
2017-03-16T06:47:04.573Z,26.54
2017-03-16T06:48:14.521Z,26.35
2017-03-16T06:49:24.156Z,26.93
2017-03-16T06:50:34.410Z,27.12
2017-03-16T06:51:44.347Z,27.12
2017-03-16T06:52:53.973Z,27.12
2017-03-16T06:54:03.916Z,27.31
2017-03-16T06:55:14.174Z,27.4
2017-03-16T06:56:24.111Z,27.31
2017-03-16T06:57:34.073Z,27.4
2017-03-16T06:58:44.018Z,27.4
2017-03-16T06:59:53.966Z,27.22
2017-03-16T07:01:03.291Z,27.61
2017-03-16T07:02:13.564Z,27.7
2017-03-16T07:03:23.816Z,27.5
2017-03-16T07:04:33.760Z,27.6
2017-03-16T07:05:44.014Z,27.7
2017-03-16T07:06:53.954Z,27.6
2017-03-16T07:08:03.590Z,27.61
2017-03-16T07:09:13.529Z,27.51
2017-03-16T07:10:23.484Z,27.61
2017-03-16T07:11:33.737Z,27.71
2017-03-16T07:12:43.370Z,27.51
2017-03-16T07:13:53.313Z,27.51
2017-03-16T07:15:03.255Z,27.42
2017-03-16T07:16:13.200Z,27.42
2017-03-16T07:17:22.824Z,27.42
2017-03-16T07:18:32.766Z,27.42
2017-03-16T07:19:43.024Z,27.42
2017-03-16T07:20:52.969Z,27.42
2017-03-16T07:22:02.906Z,27.61
2017-03-16T07:23:12.846Z,27.51
2017-03-16T07:24:22.795Z,27.04
2017-03-16T07:25:32.424Z,27.71
2017-03-16T07:26:42.363Z,27.51
2017-03-16T07:27:52.300Z,27.51
2017-03-16T07:29:02.248Z,27.61
2017-03-16T07:30:11.247Z,27.61
2017-03-16T07:31:21.190Z,27.51
2017-03-16T07:32:31.128Z,27.61
2017-03-16T07:33:41.088Z,27.51
2017-03-16T07:34:51.030Z,27.61
2017-03-16T07:36:00.650Z,27.71
2017-03-16T07:37:10.599Z,27.51
2017-03-16T07:38:19.910Z,27.71
2017-03-16T07:39:30.172Z,27.71
2017-03-16T07:40:40.112Z,27.61
2017-03-16T07:41:50.063Z,27.61
2017-03-16T07:43:00.320Z,27.71
2017-03-16T07:44:10.573Z,27.61
2017-03-16T07:45:20.209Z,27.71
2017-03-16T07:46:30.150Z,27.13
2017-03-16T07:47:40.399Z,27.61
2017-03-16T07:48:50.335Z,27.23
2017-03-16T07:50:00.273Z,27.71
2017-03-16T07:51:10.211Z,27.71
2017-03-16T07:52:19.839Z,27.71
2017-03-16T07:53:30.094Z,27.71
2017-03-16T07:54:40.352Z,27.71
2017-03-16T07:55:49.985Z,27.71
2017-03-16T07:57:00.238Z,27.71
2017-03-16T07:58:09.864Z,27.71
2017-03-16T07:59:19.183Z,27.33
2017-03-16T08:00:29.127Z,27.81
2017-03-16T08:01:39.385Z,27.81
2017-03-16T08:02:49.325Z,27.51
2017-03-16T08:03:59.275Z,27.71
2017-03-16T08:05:08.909Z,27.33
2017-03-16T08:06:18.550Z,27.33
2017-03-16T08:07:28.171Z,27.61
2017-03-16T08:08:38.434Z,28.09
2017-03-16T08:09:48.377Z,27.33
2017-03-16T08:10:58.630Z,27.72
2017-03-16T08:12:08.896Z,28
2017-03-16T08:13:18.831Z,27.92
2017-03-16T08:14:29.088Z,27.71
2017-03-16T08:15:39.038Z,28
2017-03-16T08:16:49.294Z,27.91
2017-03-16T08:17:59.235Z,27.81
2017-03-16T08:19:09.497Z,27.91
2017-03-16T08:20:19.440Z,28
2017-03-16T08:21:28.752Z,27.91
2017-03-16T08:22:39.006Z,28.02
2017-03-16T08:23:48.321Z,28
2017-03-16T08:24:58.568Z,27.81
2017-03-16T08:26:08.825Z,27.92
2017-03-16T08:27:18.459Z,27.91
2017-03-16T08:28:28.712Z,27.91
2017-03-16T08:29:38.679Z,27.81
2017-03-16T08:30:48.932Z,27.91
2017-03-16T08:31:59.184Z,27.92
2017-03-16T08:33:08.811Z,27.92
2017-03-16T08:34:18.754Z,27.91
2017-03-16T08:35:28.685Z,28.02
2017-03-16T08:36:38.629Z,27.92
2017-03-16T08:37:48.566Z,27.82
2017-03-16T08:38:58.814Z,27.92
2017-03-16T08:40:08.760Z,28
2017-03-16T08:41:19.012Z,27.92
2017-03-16T08:42:28.635Z,27.62
2017-03-16T08:43:38.259Z,27.92
2017-03-16T08:44:47.884Z,27.62
2017-03-16T08:45:58.139Z,28.02
2017-03-16T08:47:08.430Z,27.92
2017-03-16T08:48:18.365Z,28.02
2017-03-16T08:49:28.636Z,28.02
2017-03-16T08:50:38.894Z,28.02
2017-03-16T08:51:48.522Z,27.92
2017-03-16T08:52:57.837Z,27.92
2017-03-16T08:54:07.143Z,28.02
2017-03-16T08:55:17.079Z,28.02
2017-03-16T08:56:27.325Z,28.02
2017-03-16T08:57:37.593Z,27.92
2017-03-16T08:58:47.530Z,28.02
2017-03-16T08:59:57.784Z,27.82
2017-03-16T09:01:08.040Z,28.11
2017-03-16T09:02:18.289Z,28.02
2017-03-16T09:03:27.917Z,28.11
2017-03-16T09:04:38.165Z,28.11
2017-03-16T09:05:48.120Z,28.02
2017-03-16T09:06:58.063Z,28.11
2017-03-16T09:08:08.320Z,28.11
2017-03-16T09:09:17.631Z,28.2
2017-03-16T09:10:27.569Z,28.2
2017-03-16T09:11:37.823Z,28.2
2017-03-16T09:12:48.080Z,28.11
2017-03-16T09:13:58.018Z,28.2
2017-03-16T09:15:08.271Z,28.4
2017-03-16T09:16:18.209Z,28.2
2017-03-16T09:17:28.151Z,28.2
2017-03-16T09:18:37.774Z,28.49
2017-03-16T09:19:47.735Z,28.2
2017-03-16T09:20:57.050Z,28.11
2017-03-16T09:22:06.992Z,28.4
2017-03-16T09:23:16.616Z,28.49
2017-03-16T09:24:25.974Z,28.11
2017-03-16T09:25:35.915Z,28.2
2017-03-16T09:26:46.177Z,28.2
2017-03-16T09:27:56.114Z,28.3
2017-03-16T09:29:05.739Z,28.2
2017-03-16T09:30:15.674Z,28.2
2017-03-16T09:31:25.637Z,28.2
2017-03-16T09:32:35.897Z,28.49
2017-03-16T09:33:45.834Z,28.49
2017-03-16T09:34:55.459Z,28.2
2017-03-16T09:36:05.085Z,28.3
2017-03-16T09:37:15.336Z,28.2
2017-03-16T09:38:24.962Z,28.2
2017-03-16T09:39:34.928Z,28.2
2017-03-16T09:40:44.869Z,28.2
2017-03-16T09:41:54.806Z,28.02
2017-03-16T09:43:05.055Z,28.11
2017-03-16T09:44:14.050Z,28.11
2017-03-16T09:45:23.988Z,28.11
2017-03-16T09:46:33.614Z,27.82
2017-03-16T09:47:43.893Z,28.3
2017-03-16T09:48:53.833Z,28.2
2017-03-16T09:50:03.773Z,28.3
2017-03-16T09:51:14.038Z,28.3
2017-03-16T09:52:23.975Z,28.3
2017-03-16T09:53:34.227Z,28.3
2017-03-16T09:54:43.849Z,28.3
2017-03-16T09:55:54.098Z,28.3
2017-03-16T09:57:03.720Z,28.2
2017-03-16T09:58:13.658Z,28.49
2017-03-16T09:59:22.974Z,28.49
2017-03-16T10:00:32.908Z,28.49
2017-03-16T10:01:42.847Z,28.59
2017-03-16T10:02:52.790Z,28.49
2017-03-16T10:04:03.038Z,28.49
2017-03-16T10:05:12.975Z,28.49
2017-03-16T10:06:22.914Z,28.4
2017-03-16T10:07:32.538Z,28.49
2017-03-16T10:08:42.826Z,28.49
2017-03-16T10:09:52.760Z,28.4
2017-03-16T10:11:02.389Z,28.4
2017-03-16T10:12:12.331Z,28.11
2017-03-16T10:13:22.579Z,28.78
2017-03-16T10:14:32.517Z,28.49
2017-03-16T10:15:42.454Z,28.49
2017-03-16T10:16:52.077Z,28.69
2017-03-16T10:18:02.019Z,28.49
2017-03-16T10:19:11.971Z,28.59
2017-03-16T10:20:21.286Z,28.59
2017-03-16T10:21:31.542Z,28.69
2017-03-16T10:22:41.481Z,28.59
2017-03-16T10:23:51.121Z,28.69
2017-03-16T10:25:00.742Z,28.69
2017-03-16T10:26:10.997Z,28.49
2017-03-16T10:27:20.313Z,28.69
2017-03-16T10:28:29.942Z,28.69
2017-03-16T10:29:39.879Z,28.59
2017-03-16T10:30:49.504Z,28.69
2017-03-16T10:31:59.760Z,28.49
2017-03-16T10:33:09.635Z,28.2
2017-03-16T10:34:19.259Z,28.59
2017-03-16T10:35:29.197Z,28.2
2017-03-16T10:36:39.137Z,28.4
2017-03-16T10:37:49.400Z,28.78
2017-03-16T10:38:59.645Z,28.69
2017-03-16T10:40:09.901Z,28.69
2017-03-16T10:41:19.838Z,28.69
2017-03-16T10:42:29.780Z,28.78
2017-03-16T10:43:39.403Z,28.69
2017-03-16T10:44:49.652Z,28.69
2017-03-16T10:45:59.274Z,28.78
2017-03-16T10:47:09.220Z,28.49
2017-03-16T10:48:19.472Z,28.78
2017-03-16T10:49:29.409Z,28.78
2017-03-16T10:50:39.054Z,28.59
2017-03-16T10:51:48.679Z,28.78
2017-03-16T10:52:58.620Z,28.69
2017-03-16T10:54:08.877Z,28.78
2017-03-16T10:55:18.818Z,28.78
2017-03-16T10:56:29.073Z,28.78
2017-03-16T10:57:39.010Z,28.69
2017-03-16T10:58:48.947Z,28.69
2017-03-16T10:59:58.571Z,28.02
2017-03-16T11:01:08.195Z,28.69
2017-03-16T11:02:18.130Z,28.69
2017-03-16T11:03:28.394Z,28.69
2017-03-16T11:04:38.645Z,28.69
2017-03-16T11:05:48.895Z,28.59
2017-03-16T11:06:59.164Z,28.11
2017-03-16T11:08:09.420Z,28.69
2017-03-16T11:09:19.668Z,28.78
2017-03-16T11:10:29.917Z,28.78
2017-03-16T11:11:39.857Z,28.78
2017-03-16T11:12:49.801Z,28.69
2017-03-16T11:14:00.053Z,28.88
2017-03-16T11:15:09.674Z,28.78
2017-03-16T11:16:19.302Z,28.78
2017-03-16T11:17:29.248Z,28.88
2017-03-16T11:18:39.500Z,28.97
2017-03-16T11:19:49.757Z,28.88
2017-03-16T11:20:59.696Z,28.88
2017-03-16T11:22:09.634Z,28.4
2017-03-16T11:23:19.257Z,28.59
2017-03-16T11:24:28.567Z,28.97
2017-03-16T11:25:38.817Z,28.88
2017-03-16T11:26:48.759Z,29.07
2017-03-16T11:27:59.025Z,28.78
2017-03-16T11:29:08.652Z,29.07
2017-03-16T11:30:18.588Z,28.97
2017-03-16T11:31:27.898Z,29.07
2017-03-16T11:32:38.154Z,29.27
2017-03-16T11:33:48.087Z,29.07
2017-03-16T11:34:58.344Z,29.07
2017-03-16T11:36:08.283Z,28.97
2017-03-16T11:37:18.535Z,29.17
2017-03-16T11:38:28.798Z,29.17
2017-03-16T11:39:39.046Z,28.69
2017-03-16T11:40:49.297Z,29.17
2017-03-16T11:41:59.545Z,29.27
2017-03-16T11:43:09.488Z,29.07
2017-03-16T11:44:19.422Z,29.07
2017-03-16T11:45:29.049Z,28.97
2017-03-16T11:46:39.303Z,29.07
2017-03-16T11:47:49.239Z,29.07
2017-03-16T11:48:59.174Z,28.88
2017-03-16T11:50:09.425Z,29.17
2017-03-16T11:51:19.681Z,29.07
2017-03-16T11:52:29.939Z,29.17
2017-03-16T11:53:39.564Z,28.97
2017-03-16T11:54:49.500Z,29.07
2017-03-16T11:55:59.749Z,29.07
2017-03-16T11:57:10.040Z,29.07
2017-03-16T11:58:19.985Z,28.97
2017-03-16T11:59:29.918Z,29.07
2017-03-16T12:00:39.543Z,29.07
2017-03-16T12:01:49.792Z,29.07
2017-03-16T12:03:00.043Z,29.17
2017-03-16T12:04:09.353Z,28.97
2017-03-16T12:05:19.316Z,28.97
2017-03-16T12:06:29.260Z,29.07
2017-03-16T12:07:39.196Z,29.07
2017-03-16T12:08:49.135Z,29.17
2017-03-16T12:09:59.388Z,29.17
2017-03-16T12:11:09.009Z,28.78
2017-03-16T12:12:19.264Z,28.97
2017-03-16T12:13:29.201Z,29.17
2017-03-16T12:14:39.457Z,29.36
2017-03-16T12:15:49.710Z,29.46
2017-03-16T12:16:59.961Z,28.78
2017-03-16T12:18:09.899Z,29.55
2017-03-16T12:19:19.835Z,28.97
2017-03-16T12:20:29.777Z,29.55
2017-03-16T12:21:40.035Z,29.07
2017-03-16T12:22:50.285Z,29.17
2017-03-16T12:24:00.220Z,29.84
2017-03-16T12:25:10.473Z,29.46
2017-03-16T12:26:20.728Z,29.17
2017-03-16T12:27:30.668Z,29.46
2017-03-16T12:28:40.677Z,29.65
2017-03-16T12:29:50.949Z,29.07
2017-03-16T12:31:00.571Z,29.27
2017-03-16T12:32:10.825Z,29.65
2017-03-16T12:33:20.761Z,29.46
2017-03-16T12:34:30.699Z,29.74
2017-03-16T12:35:40.642Z,29.65
2017-03-16T12:36:50.896Z,30.04
2017-03-16T12:38:00.519Z,30.13
2017-03-16T12:39:10.774Z,30.04
2017-03-16T12:40:20.710Z,30.13
2017-03-16T12:41:29.708Z,30.22
2017-03-16T12:42:39.651Z,30.13
2017-03-16T12:43:49.590Z,30.13
2017-03-16T12:44:59.841Z,29.94
2017-03-16T12:46:10.093Z,30.13
2017-03-16T12:47:19.715Z,30.13
2017-03-16T12:48:29.027Z,30.13
2017-03-16T12:49:39.281Z,30.13
2017-03-16T12:50:49.532Z,29.55
2017-03-16T12:51:59.471Z,29.46
2017-03-16T12:53:09.409Z,30.13
2017-03-16T12:54:18.720Z,30.71
2017-03-16T12:55:28.348Z,30.34
2017-03-16T12:56:38.289Z,29.95
2017-03-16T12:57:48.542Z,29.86
2017-03-16T12:58:58.167Z,29.86
2017-03-16T13:00:07.793Z,30.43
2017-03-16T13:01:17.729Z,30.24
2017-03-16T13:02:27.354Z,30.05
2017-03-16T13:03:37.291Z,29.95
2017-03-16T13:04:46.921Z,29.95
2017-03-16T13:05:56.553Z,30.43
2017-03-16T13:07:06.179Z,30.43
2017-03-16T13:08:16.118Z,30.24
2017-03-16T13:09:25.749Z,30.24
2017-03-16T13:10:35.688Z,30.43
2017-03-16T13:11:45.631Z,30.43
2017-03-16T13:12:55.256Z,30.34
2017-03-16T13:14:05.505Z,30.34
2017-03-16T13:15:14.820Z,30.15
2017-03-16T13:16:24.756Z,30.15
2017-03-16T13:17:34.704Z,30.24
2017-03-16T13:18:44.956Z,30.24
2017-03-16T13:19:55.208Z,30.05
2017-03-16T13:21:05.462Z,30.15
2017-03-16T13:22:15.398Z,30.24
2017-03-16T13:23:24.709Z,30.13
2017-03-16T13:24:34.649Z,30.24
2017-03-16T13:25:44.901Z,30.43
2017-03-16T13:26:54.530Z,30.53
2017-03-16T13:28:04.464Z,30.24
2017-03-16T13:29:14.402Z,30.15
2017-03-16T13:30:24.342Z,30.15
2017-03-16T13:31:34.598Z,30.15
2017-03-16T13:32:44.535Z,30.05
2017-03-16T13:33:54.786Z,30.15
2017-03-16T13:35:04.413Z,30.24
2017-03-16T13:36:14.668Z,30.05
2017-03-16T13:37:23.982Z,30.24
2017-03-16T13:38:33.918Z,30.24
2017-03-16T13:39:43.854Z,30.34
2017-03-16T13:40:54.116Z,28.99
2017-03-16T13:42:04.055Z,28.59
2017-03-16T13:43:13.680Z,28.77
2017-03-16T13:44:23.619Z,29.25
2017-03-16T13:45:33.558Z,29.14
2017-03-16T13:46:43.813Z,29.35
2017-03-16T13:47:54.063Z,29.44
2017-03-16T13:49:03.996Z,29.54
2017-03-16T13:50:14.251Z,30.04
2017-03-16T13:51:24.189Z,30.13
2017-03-16T13:52:34.126Z,30.22
2017-03-16T13:53:44.089Z,30.13
2017-03-16T13:54:54.033Z,30.04
2017-03-16T13:56:04.286Z,30.13
2017-03-16T13:57:13.598Z,29.65
2017-03-16T13:58:23.538Z,30.04
2017-03-16T13:59:33.474Z,30.13
2017-03-16T14:00:42.786Z,30.13
2017-03-16T14:01:53.047Z,30.24
2017-03-16T14:03:03.296Z,30.15
2017-03-16T14:04:13.549Z,30.05
2017-03-16T14:05:23.489Z,30.24
2017-03-16T14:06:33.114Z,30.15
2017-03-16T14:07:43.372Z,30.53
2017-03-16T14:08:52.997Z,30.34
2017-03-16T14:10:02.935Z,30.34
2017-03-16T14:11:12.563Z,30.82
2017-03-16T14:12:22.500Z,30.63
2017-03-16T14:13:31.810Z,30.9
2017-03-16T14:14:41.753Z,31.01
2017-03-16T14:15:51.693Z,30.9
2017-03-16T14:17:01.948Z,30.61
2017-03-16T14:18:11.573Z,31.21
2017-03-16T14:19:21.192Z,30.91
2017-03-16T14:20:31.442Z,30.73
2017-03-16T14:21:41.391Z,30.34
2017-03-16T14:22:51.645Z,30.61
2017-03-16T14:24:01.584Z,30.73
2017-03-16T14:25:11.525Z,30.53
2017-03-16T14:26:21.780Z,30.63
2017-03-16T14:27:31.716Z,30.43
2017-03-16T14:28:41.967Z,30.53
2017-03-16T14:29:52.221Z,30.15
2017-03-16T14:31:02.473Z,30.63
2017-03-16T14:32:12.730Z,30.63
2017-03-16T14:33:22.671Z,30.32
2017-03-16T14:34:32.298Z,30.22
2017-03-16T14:35:41.608Z,30.43
2017-03-16T14:36:51.863Z,30.42
2017-03-16T14:38:02.116Z,29.65
2017-03-16T14:39:12.056Z,29.15
2017-03-16T14:40:21.680Z,29.24
2017-03-16T14:41:31.634Z,29.33
2017-03-16T14:42:41.575Z,29.91
2017-03-16T14:43:51.509Z,29.04
2017-03-16T14:45:01.759Z,29.61
2017-03-16T14:46:11.702Z,29.33
2017-03-16T14:47:21.650Z,30.1
2017-03-16T14:48:31.908Z,29.91
2017-03-16T14:49:41.851Z,29.62
2017-03-16T14:50:52.139Z,29.44
2017-03-16T14:52:02.391Z,29.54
2017-03-16T14:53:12.642Z,29.63
2017-03-16T14:54:22.898Z,29.44
2017-03-16T14:55:33.148Z,29.65
2017-03-16T14:56:43.401Z,29.55
2017-03-16T14:57:53.028Z,29.55
2017-03-16T14:59:02.964Z,29.27
2017-03-16T15:00:12.898Z,29.65
2017-03-16T15:01:23.151Z,30.13
2017-03-16T15:02:33.408Z,29.36
2017-03-16T15:03:43.348Z,30.04
2017-03-16T15:04:53.599Z,30.13